sensor_id;sensor_type;location;lat;lon;timestamp;temperature;humidity
12089;DHT22;6107;49.078;8.578;2023-05-24T00:01:17;14.70;99.90
12089;DHT22;6107;49.078;8.578;2023-05-24T00:03:50;14.80;99.90
12089;DHT22;6107;49.078;8.578;2023-05-24T00:06:17;14.70;99.90
12089;DHT22;6107;49.078;8.578;2023-05-24T00:08:42;14.80;99.90
12089;DHT22;6107;49.078;8.578;2023-05-24T00:11:08;14.70;99.90
12089;DHT22;6107;49.078;8.578;2023-05-24T00:13:35;14.70;99.90
12089;DHT22;6107;49.078;8.578;2023-05-24T00:16:01;14.70;99.90
12089;DHT22;6107;49.078;8.578;2023-05-24T00:18:26;14.70;99.90
12089;DHT22;6107;49.078;8.578;2023-05-24T00:20:52;14.60;99.90
12089;DHT22;6107;49.078;8.578;2023-05-24T00:23:21;14.50;99.90
12089;DHT22;6107;49.078;8.578;2023-05-24T00:25:46;14.40;99.90
12089;DHT22;6107;49.078;8.578;2023-05-24T00:28:12;14.40;99.90
12089;DHT22;6107;49.078;8.578;2023-05-24T00:30:38;14.50;99.90
12089;DHT22;6107;49.078;8.578;2023-05-24T00:33:03;14.50;99.90
12089;DHT22;6107;49.078;8.578;2023-05-24T00:35:29;14.40;99.90
12089;DHT22;6107;49.078;8.578;2023-05-24T00:37:54;14.40;99.90
12089;DHT22;6107;49.078;8.578;2023-05-24T00:40:21;14.30;99.90
12089;DHT22;6107;49.078;8.578;2023-05-24T00:42:47;14.20;99.90
12089;DHT22;6107;49.078;8.578;2023-05-24T00:45:12;14.10;99.90
12089;DHT22;6107;49.078;8.578;2023-05-24T00:47:38;14.10;99.90
12089;DHT22;6107;49.078;8.578;2023-05-24T00:50:06;14.00;99.90
12089;DHT22;6107;49.078;8.578;2023-05-24T00:52:32;13.90;99.90
12089;DHT22;6107;49.078;8.578;2023-05-24T00:54:57;13.70;99.90
12089;DHT22;6107;49.078;8.578;2023-05-24T00:57:23;13.70;99.90
12089;DHT22;6107;49.078;8.578;2023-05-24T00:59:50;13.80;99.90
12089;DHT22;6107;49.078;8.578;2023-05-24T01:02:16;13.60;99.90
12089;DHT22;6107;49.078;8.578;2023-05-24T01:04:42;13.60;99.90
12089;DHT22;6107;49.078;8.578;2023-05-24T01:07:12;13.70;99.90
12089;DHT22;6107;49.078;8.578;2023-05-24T01:09:48;13.70;99.90
12089;DHT22;6107;49.078;8.578;2023-05-24T01:12:24;13.50;99.90
12089;DHT22;6107;49.078;8.578;2023-05-24T01:15:10;13.30;99.90
12089;DHT22;6107;49.078;8.578;2023-05-24T01:17:48;13.10;99.90
12089;DHT22;6107;49.078;8.578;2023-05-24T01:20:16;13.30;99.90
12089;DHT22;6107;49.078;8.578;2023-05-24T01:23:17;13.40;99.90
12089;DHT22;6107;49.078;8.578;2023-05-24T01:26:41;13.40;99.90
12089;DHT22;6107;49.078;8.578;2023-05-24T01:28:47;13.40;99.90
12089;DHT22;6107;49.078;8.578;2023-05-24T01:31:15;13.40;99.90
12089;DHT22;6107;49.078;8.578;2023-05-24T01:33:41;13.50;99.90
12089;DHT22;6107;49.078;8.578;2023-05-24T01:36:07;13.50;99.90
12089;DHT22;6107;49.078;8.578;2023-05-24T01:38:33;13.40;99.90
12089;DHT22;6107;49.078;8.578;2023-05-24T01:44:25;13.30;99.90
12089;DHT22;6107;49.078;8.578;2023-05-24T01:47:00;13.30;99.90
12089;DHT22;6107;49.078;8.578;2023-05-24T01:49:30;13.40;99.90
12089;DHT22;6107;49.078;8.578;2023-05-24T01:52:02;13.20;99.90
12089;DHT22;6107;49.078;8.578;2023-05-24T01:54:32;13.20;99.90
12089;DHT22;6107;49.078;8.578;2023-05-24T01:56:58;12.90;99.90
12089;DHT22;6107;49.078;8.578;2023-05-24T01:59:25;12.80;99.90
12089;DHT22;6107;49.078;8.578;2023-05-24T02:01:53;13.00;99.90
12089;DHT22;6107;49.078;8.578;2023-05-24T02:04:19;13.10;99.90
12089;DHT22;6107;49.078;8.578;2023-05-24T02:06:44;13.00;99.90
12089;DHT22;6107;49.078;8.578;2023-05-24T02:09:10;13.00;99.90
12089;DHT22;6107;49.078;8.578;2023-05-24T02:11:35;13.00;99.90
12089;DHT22;6107;49.078;8.578;2023-05-24T02:14:01;13.00;99.90
12089;DHT22;6107;49.078;8.578;2023-05-24T02:16:26;13.10;99.90
12089;DHT22;6107;49.078;8.578;2023-05-24T02:18:55;13.00;99.90
12089;DHT22;6107;49.078;8.578;2023-05-24T02:21:21;13.00;99.90
12089;DHT22;6107;49.078;8.578;2023-05-24T02:23:47;12.90;99.90
12089;DHT22;6107;49.078;8.578;2023-05-24T02:26:13;12.70;99.90
12089;DHT22;6107;49.078;8.578;2023-05-24T02:28:39;12.70;99.90
12089;DHT22;6107;49.078;8.578;2023-05-24T02:31:05;12.70;99.90
12089;DHT22;6107;49.078;8.578;2023-05-24T02:33:30;12.80;99.90
12089;DHT22;6107;49.078;8.578;2023-05-24T02:35:56;13.00;99.90
12089;DHT22;6107;49.078;8.578;2023-05-24T02:38:22;12.90;99.90
12089;DHT22;6107;49.078;8.578;2023-05-24T02:40:47;13.00;99.90
12089;DHT22;6107;49.078;8.578;2023-05-24T02:43:13;12.90;99.90
12089;DHT22;6107;49.078;8.578;2023-05-24T02:45:39;12.70;99.90
12089;DHT22;6107;49.078;8.578;2023-05-24T02:48:04;12.70;99.90
12089;DHT22;6107;49.078;8.578;2023-05-24T02:50:30;12.80;99.90
12089;DHT22;6107;49.078;8.578;2023-05-24T02:52:56;12.60;99.90
12089;DHT22;6107;49.078;8.578;2023-05-24T02:55:21;12.60;99.90
12089;DHT22;6107;49.078;8.578;2023-05-24T02:57:47;12.70;99.90
12089;DHT22;6107;49.078;8.578;2023-05-24T03:00:13;12.80;99.90
12089;DHT22;6107;49.078;8.578;2023-05-24T03:02:39;12.80;99.90
12089;DHT22;6107;49.078;8.578;2023-05-24T03:05:06;12.80;99.90
12089;DHT22;6107;49.078;8.578;2023-05-24T03:07:32;12.80;99.90
12089;DHT22;6107;49.078;8.578;2023-05-24T03:09:57;12.80;99.90
12089;DHT22;6107;49.078;8.578;2023-05-24T03:12:23;12.70;99.90
12089;DHT22;6107;49.078;8.578;2023-05-24T03:14:48;12.70;99.90
12089;DHT22;6107;49.078;8.578;2023-05-24T03:17:14;12.60;99.90
12089;DHT22;6107;49.078;8.578;2023-05-24T03:19:39;12.70;99.90
12089;DHT22;6107;49.078;8.578;2023-05-24T03:22:06;12.60;99.90
12089;DHT22;6107;49.078;8.578;2023-05-24T03:24:32;12.60;99.90
12089;DHT22;6107;49.078;8.578;2023-05-24T03:26:57;12.40;99.90
12089;DHT22;6107;49.078;8.578;2023-05-24T03:29:23;12.40;99.90
12089;DHT22;6107;49.078;8.578;2023-05-24T03:31:49;12.50;99.90
12089;DHT22;6107;49.078;8.578;2023-05-24T03:34:14;12.60;99.90
12089;DHT22;6107;49.078;8.578;2023-05-24T03:36:40;12.60;99.90
12089;DHT22;6107;49.078;8.578;2023-05-24T03:39:06;12.50;99.90
12089;DHT22;6107;49.078;8.578;2023-05-24T03:41:32;12.60;99.90
12089;DHT22;6107;49.078;8.578;2023-05-24T03:43:58;12.50;99.90
12089;DHT22;6107;49.078;8.578;2023-05-24T03:46:23;12.40;99.90
12089;DHT22;6107;49.078;8.578;2023-05-24T03:48:49;12.40;99.90
12089;DHT22;6107;49.078;8.578;2023-05-24T03:51:15;12.30;99.90
12089;DHT22;6107;49.078;8.578;2023-05-24T03:53:40;12.30;99.90
12089;DHT22;6107;49.078;8.578;2023-05-24T03:56:06;12.40;99.90
12089;DHT22;6107;49.078;8.578;2023-05-24T03:58:32;12.50;99.90
12089;DHT22;6107;49.078;8.578;2023-05-24T04:00:57;12.50;99.90
12089;DHT22;6107;49.078;8.578;2023-05-24T04:03:23;12.40;99.90
12089;DHT22;6107;49.078;8.578;2023-05-24T04:05:50;12.50;99.90
12089;DHT22;6107;49.078;8.578;2023-05-24T04:08:15;12.50;99.90
12089;DHT22;6107;49.078;8.578;2023-05-24T04:10:41;12.50;99.90
12089;DHT22;6107;49.078;8.578;2023-05-24T04:13:07;12.40;99.90
12089;DHT22;6107;49.078;8.578;2023-05-24T04:15:33;12.40;99.90
12089;DHT22;6107;49.078;8.578;2023-05-24T04:17:59;12.50;99.90
12089;DHT22;6107;49.078;8.578;2023-05-24T04:20:24;12.30;99.90
12089;DHT22;6107;49.078;8.578;2023-05-24T04:22:52;12.40;99.90
12089;DHT22;6107;49.078;8.578;2023-05-24T04:25:18;12.40;99.90
12089;DHT22;6107;49.078;8.578;2023-05-24T04:27:44;12.30;99.90
12089;DHT22;6107;49.078;8.578;2023-05-24T04:30:12;12.00;99.90
12089;DHT22;6107;49.078;8.578;2023-05-24T04:32:38;12.20;99.90
12089;DHT22;6107;49.078;8.578;2023-05-24T04:35:05;12.20;99.90
12089;DHT22;6107;49.078;8.578;2023-05-24T04:37:32;12.10;99.90
12089;DHT22;6107;49.078;8.578;2023-05-24T04:39:57;12.10;99.90
12089;DHT22;6107;49.078;8.578;2023-05-24T04:42:23;12.10;99.90
12089;DHT22;6107;49.078;8.578;2023-05-24T04:44:49;12.10;99.90
12089;DHT22;6107;49.078;8.578;2023-05-24T04:47:14;12.20;99.90
12089;DHT22;6107;49.078;8.578;2023-05-24T04:49:40;12.30;99.90
12089;DHT22;6107;49.078;8.578;2023-05-24T04:52:06;12.30;99.90
12089;DHT22;6107;49.078;8.578;2023-05-24T04:54:32;12.20;99.90
12089;DHT22;6107;49.078;8.578;2023-05-24T04:56:58;12.30;99.90
12089;DHT22;6107;49.078;8.578;2023-05-24T04:59:24;12.20;99.90
12089;DHT22;6107;49.078;8.578;2023-05-24T05:01:49;12.30;99.90
12089;DHT22;6107;49.078;8.578;2023-05-24T05:04:15;12.40;99.90
12089;DHT22;6107;49.078;8.578;2023-05-24T05:06:41;12.40;99.90
12089;DHT22;6107;49.078;8.578;2023-05-24T05:09:09;12.30;99.90
12089;DHT22;6107;49.078;8.578;2023-05-24T05:11:37;12.30;99.90
12089;DHT22;6107;49.078;8.578;2023-05-24T05:14:03;12.40;99.90
12089;DHT22;6107;49.078;8.578;2023-05-24T05:16:29;12.30;99.90
12089;DHT22;6107;49.078;8.578;2023-05-24T05:18:54;12.30;99.90
12089;DHT22;6107;49.078;8.578;2023-05-24T05:21:20;12.30;99.90
12089;DHT22;6107;49.078;8.578;2023-05-24T05:23:45;12.20;99.90
12089;DHT22;6107;49.078;8.578;2023-05-24T05:26:11;12.40;99.90
12089;DHT22;6107;49.078;8.578;2023-05-24T05:28:37;12.40;99.90
12089;DHT22;6107;49.078;8.578;2023-05-24T05:31:02;12.50;99.90
12089;DHT22;6107;49.078;8.578;2023-05-24T05:33:30;12.40;99.90
12089;DHT22;6107;49.078;8.578;2023-05-24T05:35:56;12.30;99.90
12089;DHT22;6107;49.078;8.578;2023-05-24T05:38:21;12.50;99.90
12089;DHT22;6107;49.078;8.578;2023-05-24T05:40:47;12.60;99.90
12089;DHT22;6107;49.078;8.578;2023-05-24T05:43:12;12.60;99.90
12089;DHT22;6107;49.078;8.578;2023-05-24T05:45:38;12.70;99.90
12089;DHT22;6107;49.078;8.578;2023-05-24T05:48:03;12.60;99.90
12089;DHT22;6107;49.078;8.578;2023-05-24T05:50:29;12.60;99.90
12089;DHT22;6107;49.078;8.578;2023-05-24T05:52:55;12.30;99.90
12089;DHT22;6107;49.078;8.578;2023-05-24T05:55:20;12.40;99.90
12089;DHT22;6107;49.078;8.578;2023-05-24T05:57:46;12.20;99.90
12089;DHT22;6107;49.078;8.578;2023-05-24T06:00:12;12.20;99.90
12089;DHT22;6107;49.078;8.578;2023-05-24T06:02:37;12.00;99.90
12089;DHT22;6107;49.078;8.578;2023-05-24T06:05:03;12.10;99.90
12089;DHT22;6107;49.078;8.578;2023-05-24T06:07:29;12.10;99.90
12089;DHT22;6107;49.078;8.578;2023-05-24T06:09:55;12.40;99.90
12089;DHT22;6107;49.078;8.578;2023-05-24T06:12:20;12.40;99.90
12089;DHT22;6107;49.078;8.578;2023-05-24T06:14:46;12.40;99.90
12089;DHT22;6107;49.078;8.578;2023-05-24T06:17:15;12.40;99.90
12089;DHT22;6107;49.078;8.578;2023-05-24T06:19:40;12.30;99.90
12089;DHT22;6107;49.078;8.578;2023-05-24T06:22:07;12.40;99.90
12089;DHT22;6107;49.078;8.578;2023-05-24T06:24:33;12.40;99.90
12089;DHT22;6107;49.078;8.578;2023-05-24T06:26:59;12.40;99.90
12089;DHT22;6107;49.078;8.578;2023-05-24T06:29:24;12.30;99.90
12089;DHT22;6107;49.078;8.578;2023-05-24T06:31:50;12.40;99.90
12089;DHT22;6107;49.078;8.578;2023-05-24T06:34:17;12.70;99.90
12089;DHT22;6107;49.078;8.578;2023-05-24T06:36:45;12.40;99.90
12089;DHT22;6107;49.078;8.578;2023-05-24T06:39:13;12.60;99.90
12089;DHT22;6107;49.078;8.578;2023-05-24T06:41:39;12.70;99.90
12089;DHT22;6107;49.078;8.578;2023-05-24T06:44:06;12.90;99.90
12089;DHT22;6107;49.078;8.578;2023-05-24T06:46:32;12.80;99.90
12089;DHT22;6107;49.078;8.578;2023-05-24T06:48:57;12.90;99.90
12089;DHT22;6107;49.078;8.578;2023-05-24T06:51:23;13.10;99.90
12089;DHT22;6107;49.078;8.578;2023-05-24T06:53:49;13.20;99.90
12089;DHT22;6107;49.078;8.578;2023-05-24T06:56:15;13.10;99.90
12089;DHT22;6107;49.078;8.578;2023-05-24T06:58:40;13.10;99.90
12089;DHT22;6107;49.078;8.578;2023-05-24T07:01:06;13.00;99.90
12089;DHT22;6107;49.078;8.578;2023-05-24T07:03:33;13.10;99.90
12089;DHT22;6107;49.078;8.578;2023-05-24T07:05:59;13.20;99.90
12089;DHT22;6107;49.078;8.578;2023-05-24T07:08:24;13.40;99.90
12089;DHT22;6107;49.078;8.578;2023-05-24T07:10:51;13.40;99.90
12089;DHT22;6107;49.078;8.578;2023-05-24T07:13:17;13.40;99.90
12089;DHT22;6107;49.078;8.578;2023-05-24T07:15:44;13.10;99.90
12089;DHT22;6107;49.078;8.578;2023-05-24T07:18:10;13.10;99.90
12089;DHT22;6107;49.078;8.578;2023-05-24T07:20:35;13.10;99.90
12089;DHT22;6107;49.078;8.578;2023-05-24T07:23:01;13.10;99.90
12089;DHT22;6107;49.078;8.578;2023-05-24T07:25:28;13.10;99.90
12089;DHT22;6107;49.078;8.578;2023-05-24T07:27:58;13.20;99.90
12089;DHT22;6107;49.078;8.578;2023-05-24T07:30:23;13.30;99.90
12089;DHT22;6107;49.078;8.578;2023-05-24T07:32:49;13.40;99.90
12089;DHT22;6107;49.078;8.578;2023-05-24T07:35:15;13.50;99.90
12089;DHT22;6107;49.078;8.578;2023-05-24T07:37:41;13.60;99.90
12089;DHT22;6107;49.078;8.578;2023-05-24T07:40:07;13.70;99.90
12089;DHT22;6107;49.078;8.578;2023-05-24T07:42:38;13.80;99.90
12089;DHT22;6107;49.078;8.578;2023-05-24T07:45:08;14.10;99.90
12089;DHT22;6107;49.078;8.578;2023-05-24T07:47:34;13.80;99.90
12089;DHT22;6107;49.078;8.578;2023-05-24T07:50:00;14.00;99.90
12089;DHT22;6107;49.078;8.578;2023-05-24T07:52:26;14.40;99.90
12089;DHT22;6107;49.078;8.578;2023-05-24T07:54:52;14.70;99.90
12089;DHT22;6107;49.078;8.578;2023-05-24T07:57:18;15.10;99.90
12089;DHT22;6107;49.078;8.578;2023-05-24T07:59:44;15.10;99.90
12089;DHT22;6107;49.078;8.578;2023-05-24T08:02:09;14.80;99.90
12089;DHT22;6107;49.078;8.578;2023-05-24T08:04:36;14.40;99.90
12089;DHT22;6107;49.078;8.578;2023-05-24T08:07:02;14.30;99.90
12089;DHT22;6107;49.078;8.578;2023-05-24T08:09:28;14.50;99.90
12089;DHT22;6107;49.078;8.578;2023-05-24T08:11:55;14.60;99.90
12089;DHT22;6107;49.078;8.578;2023-05-24T08:14:21;14.30;99.90
12089;DHT22;6107;49.078;8.578;2023-05-24T08:16:47;14.40;99.90
12089;DHT22;6107;49.078;8.578;2023-05-24T08:19:13;14.70;99.90
12089;DHT22;6107;49.078;8.578;2023-05-24T08:21:39;14.60;99.90
12089;DHT22;6107;49.078;8.578;2023-05-24T08:24:06;15.00;99.90
12089;DHT22;6107;49.078;8.578;2023-05-24T08:26:31;15.40;99.90
12089;DHT22;6107;49.078;8.578;2023-05-24T08:28:57;15.40;99.90
12089;DHT22;6107;49.078;8.578;2023-05-24T08:31:22;15.20;99.90
12089;DHT22;6107;49.078;8.578;2023-05-24T08:33:48;15.20;99.90
12089;DHT22;6107;49.078;8.578;2023-05-24T08:36:16;15.30;99.90
12089;DHT22;6107;49.078;8.578;2023-05-24T08:38:42;15.50;99.90
12089;DHT22;6107;49.078;8.578;2023-05-24T08:41:10;15.60;99.90
12089;DHT22;6107;49.078;8.578;2023-05-24T08:43:37;15.50;99.90
12089;DHT22;6107;49.078;8.578;2023-05-24T08:46:03;14.80;99.90
12089;DHT22;6107;49.078;8.578;2023-05-24T08:48:29;14.80;99.90
12089;DHT22;6107;49.078;8.578;2023-05-24T08:50:56;15.20;99.90
12089;DHT22;6107;49.078;8.578;2023-05-24T08:53:23;15.30;99.90
12089;DHT22;6107;49.078;8.578;2023-05-24T08:55:49;15.40;99.90
12089;DHT22;6107;49.078;8.578;2023-05-24T08:58:18;15.40;99.90
12089;DHT22;6107;49.078;8.578;2023-05-24T09:00:43;15.30;99.90
12089;DHT22;6107;49.078;8.578;2023-05-24T09:03:10;15.20;99.90
12089;DHT22;6107;49.078;8.578;2023-05-24T09:05:36;15.00;99.90
12089;DHT22;6107;49.078;8.578;2023-05-24T09:08:02;15.10;99.90
12089;DHT22;6107;49.078;8.578;2023-05-24T09:10:31;15.10;99.90
12089;DHT22;6107;49.078;8.578;2023-05-24T09:13:00;15.60;99.90
12089;DHT22;6107;49.078;8.578;2023-05-24T09:15:26;15.20;99.90
12089;DHT22;6107;49.078;8.578;2023-05-24T09:17:52;15.40;99.90
12089;DHT22;6107;49.078;8.578;2023-05-24T09:20:19;15.30;99.90
12089;DHT22;6107;49.078;8.578;2023-05-24T09:22:49;16.20;99.90
12089;DHT22;6107;49.078;8.578;2023-05-24T09:25:17;16.90;99.90
12089;DHT22;6107;49.078;8.578;2023-05-24T09:27:54;16.10;99.90
12089;DHT22;6107;49.078;8.578;2023-05-24T09:30:20;16.20;99.90
12089;DHT22;6107;49.078;8.578;2023-05-24T09:32:59;16.40;99.90
12089;DHT22;6107;49.078;8.578;2023-05-24T09:35:28;16.60;99.90
12089;DHT22;6107;49.078;8.578;2023-05-24T09:37:57;17.10;99.90
12089;DHT22;6107;49.078;8.578;2023-05-24T09:40:26;17.20;99.90
12089;DHT22;6107;49.078;8.578;2023-05-24T09:43:08;16.80;99.90
12089;DHT22;6107;49.078;8.578;2023-05-24T09:45:43;16.50;99.90
12089;DHT22;6107;49.078;8.578;2023-05-24T09:48:14;16.80;99.90
12089;DHT22;6107;49.078;8.578;2023-05-24T09:50:42;17.10;99.90
12089;DHT22;6107;49.078;8.578;2023-05-24T09:53:09;16.90;99.90
12089;DHT22;6107;49.078;8.578;2023-05-24T09:55:36;16.60;99.90
12089;DHT22;6107;49.078;8.578;2023-05-24T09:58:06;16.60;99.90
12089;DHT22;6107;49.078;8.578;2023-05-24T10:00:38;16.80;99.90
12089;DHT22;6107;49.078;8.578;2023-05-24T10:03:08;17.00;99.90
12089;DHT22;6107;49.078;8.578;2023-05-24T10:05:35;17.50;99.90
12089;DHT22;6107;49.078;8.578;2023-05-24T10:08:01;17.60;99.90
12089;DHT22;6107;49.078;8.578;2023-05-24T10:10:31;17.20;99.90
12089;DHT22;6107;49.078;8.578;2023-05-24T10:12:58;17.40;99.90
12089;DHT22;6107;49.078;8.578;2023-05-24T10:15:24;16.80;99.90
12089;DHT22;6107;49.078;8.578;2023-05-24T10:17:54;17.40;99.90
12089;DHT22;6107;49.078;8.578;2023-05-24T10:20:21;17.50;99.90
12089;DHT22;6107;49.078;8.578;2023-05-24T10:22:51;17.80;99.90
12089;DHT22;6107;49.078;8.578;2023-05-24T10:25:22;18.30;99.90
12089;DHT22;6107;49.078;8.578;2023-05-24T10:27:53;18.70;99.90
12089;DHT22;6107;49.078;8.578;2023-05-24T10:32:46;18.60;99.90
12089;DHT22;6107;49.078;8.578;2023-05-24T10:35:13;18.50;99.90
12089;DHT22;6107;49.078;8.578;2023-05-24T10:37:40;19.30;99.90
12089;DHT22;6107;49.078;8.578;2023-05-24T10:40:15;18.90;99.90
12089;DHT22;6107;49.078;8.578;2023-05-24T10:42:42;17.80;99.90
12089;DHT22;6107;49.078;8.578;2023-05-24T10:47:49;19.20;99.90
12089;DHT22;6107;49.078;8.578;2023-05-24T10:50:19;19.80;99.90
12089;DHT22;6107;49.078;8.578;2023-05-24T10:52:48;19.50;99.90
12089;DHT22;6107;49.078;8.578;2023-05-24T10:55:14;19.00;99.90
12089;DHT22;6107;49.078;8.578;2023-05-24T10:57:39;19.30;99.90
12089;DHT22;6107;49.078;8.578;2023-05-24T11:00:28;18.30;99.90
12089;DHT22;6107;49.078;8.578;2023-05-24T11:03:08;18.80;99.90
12089;DHT22;6107;49.078;8.578;2023-05-24T11:05:35;19.30;99.90
12089;DHT22;6107;49.078;8.578;2023-05-24T11:08:33;20.30;99.90
12089;DHT22;6107;49.078;8.578;2023-05-24T11:11:06;20.00;99.90
12089;DHT22;6107;49.078;8.578;2023-05-24T11:13:32;20.70;99.90
12089;DHT22;6107;49.078;8.578;2023-05-24T11:15:58;20.00;99.90
12089;DHT22;6107;49.078;8.578;2023-05-24T11:18:24;19.50;99.90
12089;DHT22;6107;49.078;8.578;2023-05-24T11:20:50;19.20;99.90
12089;DHT22;6107;49.078;8.578;2023-05-24T11:23:17;19.30;99.90
12089;DHT22;6107;49.078;8.578;2023-05-24T11:25:45;19.30;99.90
12089;DHT22;6107;49.078;8.578;2023-05-24T11:28:11;19.20;99.90
12089;DHT22;6107;49.078;8.578;2023-05-24T11:30:41;19.50;99.90
12089;DHT22;6107;49.078;8.578;2023-05-24T11:33:23;19.60;99.90
12089;DHT22;6107;49.078;8.578;2023-05-24T11:35:53;19.80;99.90
12089;DHT22;6107;49.078;8.578;2023-05-24T11:38:20;19.40;99.90
12089;DHT22;6107;49.078;8.578;2023-05-24T11:40:47;19.20;99.90
12089;DHT22;6107;49.078;8.578;2023-05-24T11:43:18;19.20;99.90
12089;DHT22;6107;49.078;8.578;2023-05-24T11:45:45;19.30;99.90
12089;DHT22;6107;49.078;8.578;2023-05-24T11:48:13;19.40;99.90
12089;DHT22;6107;49.078;8.578;2023-05-24T11:50:40;19.20;99.90
12089;DHT22;6107;49.078;8.578;2023-05-24T11:53:14;19.60;99.90
12089;DHT22;6107;49.078;8.578;2023-05-24T11:55:40;19.40;99.90
12089;DHT22;6107;49.078;8.578;2023-05-24T12:00:42;20.30;99.90
12089;DHT22;6107;49.078;8.578;2023-05-24T12:03:08;20.90;99.90
12089;DHT22;6107;49.078;8.578;2023-05-24T12:05:35;19.50;99.90
12089;DHT22;6107;49.078;8.578;2023-05-24T12:08:09;19.80;99.90
12089;DHT22;6107;49.078;8.578;2023-05-24T12:10:38;20.00;99.90
12089;DHT22;6107;49.078;8.578;2023-05-24T12:13:05;20.70;99.90
12089;DHT22;6107;49.078;8.578;2023-05-24T12:15:42;20.50;99.90
12089;DHT22;6107;49.078;8.578;2023-05-24T12:18:20;19.50;99.90
12089;DHT22;6107;49.078;8.578;2023-05-24T12:20:48;18.80;99.90
12089;DHT22;6107;49.078;8.578;2023-05-24T12:23:13;18.70;99.90
12089;DHT22;6107;49.078;8.578;2023-05-24T12:25:39;20.00;99.90
12089;DHT22;6107;49.078;8.578;2023-05-24T12:28:05;19.40;99.90
12089;DHT22;6107;49.078;8.578;2023-05-24T12:30:30;19.30;99.90
12089;DHT22;6107;49.078;8.578;2023-05-24T12:32:56;19.50;99.90
12089;DHT22;6107;49.078;8.578;2023-05-24T12:35:23;20.30;99.90
12089;DHT22;6107;49.078;8.578;2023-05-24T12:37:49;20.30;99.90
12089;DHT22;6107;49.078;8.578;2023-05-24T12:40:19;20.80;99.90
12089;DHT22;6107;49.078;8.578;2023-05-24T12:42:58;21.40;99.90
12089;DHT22;6107;49.078;8.578;2023-05-24T12:45:24;20.90;99.90
12089;DHT22;6107;49.078;8.578;2023-05-24T12:47:53;20.10;99.90
12089;DHT22;6107;49.078;8.578;2023-05-24T12:50:21;20.50;99.90
12089;DHT22;6107;49.078;8.578;2023-05-24T12:52:47;21.80;99.90
12089;DHT22;6107;49.078;8.578;2023-05-24T12:55:26;22.10;99.90
12089;DHT22;6107;49.078;8.578;2023-05-24T12:57:53;22.60;99.90
12089;DHT22;6107;49.078;8.578;2023-05-24T13:00:24;22.10;99.90
12089;DHT22;6107;49.078;8.578;2023-05-24T13:02:53;21.80;99.90
12089;DHT22;6107;49.078;8.578;2023-05-24T13:05:21;21.70;99.90
12089;DHT22;6107;49.078;8.578;2023-05-24T13:07:49;21.90;99.90
12089;DHT22;6107;49.078;8.578;2023-05-24T13:10:15;21.10;99.90
12089;DHT22;6107;49.078;8.578;2023-05-24T13:12:40;22.30;99.90
12089;DHT22;6107;49.078;8.578;2023-05-24T13:15:06;22.40;99.90
12089;DHT22;6107;49.078;8.578;2023-05-24T13:17:33;22.30;99.90
12089;DHT22;6107;49.078;8.578;2023-05-24T13:20:02;22.20;99.90
12089;DHT22;6107;49.078;8.578;2023-05-24T13:22:33;22.30;99.90
12089;DHT22;6107;49.078;8.578;2023-05-24T13:24:59;22.40;99.90
12089;DHT22;6107;49.078;8.578;2023-05-24T13:27:25;21.30;99.90
12089;DHT22;6107;49.078;8.578;2023-05-24T13:29:51;22.10;99.90
12089;DHT22;6107;49.078;8.578;2023-05-24T13:32:17;21.60;99.90
12089;DHT22;6107;49.078;8.578;2023-05-24T13:34:43;21.60;99.90
12089;DHT22;6107;49.078;8.578;2023-05-24T13:37:08;21.80;99.90
12089;DHT22;6107;49.078;8.578;2023-05-24T13:39:34;22.20;99.90
12089;DHT22;6107;49.078;8.578;2023-05-24T13:42:00;23.00;99.90
12089;DHT22;6107;49.078;8.578;2023-05-24T13:44:26;23.20;99.90
12089;DHT22;6107;49.078;8.578;2023-05-24T13:46:52;22.50;99.90
12089;DHT22;6107;49.078;8.578;2023-05-24T13:49:18;22.30;99.90
12089;DHT22;6107;49.078;8.578;2023-05-24T13:51:44;23.00;99.90
12089;DHT22;6107;49.078;8.578;2023-05-24T13:54:09;21.20;99.90
12089;DHT22;6107;49.078;8.578;2023-05-24T13:56:35;21.60;99.90
12089;DHT22;6107;49.078;8.578;2023-05-24T13:59:03;21.60;99.90
12089;DHT22;6107;49.078;8.578;2023-05-24T14:01:29;22.40;99.90
12089;DHT22;6107;49.078;8.578;2023-05-24T14:03:55;22.80;99.90
12089;DHT22;6107;49.078;8.578;2023-05-24T14:06:20;22.80;99.90
12089;DHT22;6107;49.078;8.578;2023-05-24T14:08:47;21.80;99.80
12089;DHT22;6107;49.078;8.578;2023-05-24T14:11:13;21.10;99.90
12089;DHT22;6107;49.078;8.578;2023-05-24T14:13:42;21.70;99.90
12089;DHT22;6107;49.078;8.578;2023-05-24T14:16:08;23.00;99.90
12089;DHT22;6107;49.078;8.578;2023-05-24T14:18:34;22.90;99.90
12089;DHT22;6107;49.078;8.578;2023-05-24T14:21:00;22.30;99.90
12089;DHT22;6107;49.078;8.578;2023-05-24T14:23:29;22.40;99.90
12089;DHT22;6107;49.078;8.578;2023-05-24T14:25:56;23.30;99.90
12089;DHT22;6107;49.078;8.578;2023-05-24T14:28:22;23.60;99.90
12089;DHT22;6107;49.078;8.578;2023-05-24T14:30:48;22.30;99.90
12089;DHT22;6107;49.078;8.578;2023-05-24T14:33:14;22.10;99.90
12089;DHT22;6107;49.078;8.578;2023-05-24T14:35:39;21.90;99.90
12089;DHT22;6107;49.078;8.578;2023-05-24T14:38:06;23.20;99.90
12089;DHT22;6107;49.078;8.578;2023-05-24T14:40:33;23.40;99.90
12089;DHT22;6107;49.078;8.578;2023-05-24T14:43:04;23.10;99.90
12089;DHT22;6107;49.078;8.578;2023-05-24T14:45:29;23.30;99.90
12089;DHT22;6107;49.078;8.578;2023-05-24T14:47:55;23.60;99.90
12089;DHT22;6107;49.078;8.578;2023-05-24T14:50:21;23.10;99.90
12089;DHT22;6107;49.078;8.578;2023-05-24T14:52:47;21.80;99.90
12089;DHT22;6107;49.078;8.578;2023-05-24T14:55:12;21.60;99.90
12089;DHT22;6107;49.078;8.578;2023-05-24T14:57:39;21.30;99.90
12089;DHT22;6107;49.078;8.578;2023-05-24T15:00:06;22.10;99.30
12089;DHT22;6107;49.078;8.578;2023-05-24T15:02:32;22.50;98.90
12089;DHT22;6107;49.078;8.578;2023-05-24T15:04:58;21.70;99.40
12089;DHT22;6107;49.078;8.578;2023-05-24T15:07:24;20.80;99.90
12089;DHT22;6107;49.078;8.578;2023-05-24T15:09:50;22.20;99.90
12089;DHT22;6107;49.078;8.578;2023-05-24T15:12:16;22.70;99.90
12089;DHT22;6107;49.078;8.578;2023-05-24T15:14:42;22.50;98.70
12089;DHT22;6107;49.078;8.578;2023-05-24T15:17:08;21.80;99.90
12089;DHT22;6107;49.078;8.578;2023-05-24T15:19:34;22.50;99.90
12089;DHT22;6107;49.078;8.578;2023-05-24T15:22:00;22.50;98.20
12089;DHT22;6107;49.078;8.578;2023-05-24T15:24:25;22.60;99.90
12089;DHT22;6107;49.078;8.578;2023-05-24T15:26:51;22.20;99.60
12089;DHT22;6107;49.078;8.578;2023-05-24T15:29:17;22.90;99.90
12089;DHT22;6107;49.078;8.578;2023-05-24T15:31:43;22.90;99.90
12089;DHT22;6107;49.078;8.578;2023-05-24T15:34:09;22.40;99.90
12089;DHT22;6107;49.078;8.578;2023-05-24T15:36:34;23.20;99.90
12089;DHT22;6107;49.078;8.578;2023-05-24T15:39:00;23.20;98.70
12089;DHT22;6107;49.078;8.578;2023-05-24T15:41:26;22.70;96.90
12089;DHT22;6107;49.078;8.578;2023-05-24T15:43:52;22.20;99.10
12089;DHT22;6107;49.078;8.578;2023-05-24T15:46:21;21.40;98.20
12089;DHT22;6107;49.078;8.578;2023-05-24T15:48:47;21.80;96.10
12089;DHT22;6107;49.078;8.578;2023-05-24T15:51:12;20.90;98.20
12089;DHT22;6107;49.078;8.578;2023-05-24T15:53:38;21.10;98.90
12089;DHT22;6107;49.078;8.578;2023-05-24T15:56:04;22.10;99.60